createdAt,value
2017-05-30T00:02:46.514Z,1000.8
2017-05-30T00:12:55.194Z,1001
2017-05-30T00:23:03.854Z,1001.1
2017-05-30T00:33:12.513Z,1001
2017-05-30T00:43:21.274Z,1000.8
2017-05-30T00:53:30.090Z,1001
2017-05-30T01:03:38.987Z,1001.2
2017-05-30T01:13:47.924Z,1001.3
2017-05-30T01:23:56.888Z,1001.2
2017-05-30T01:34:05.874Z,1001
2017-05-30T01:44:14.849Z,1001.1
2017-05-30T01:54:23.868Z,1001.2
2017-05-30T02:04:32.869Z,1001.1
2017-05-30T02:14:41.919Z,1000.9
2017-05-30T02:24:51.017Z,1001.3
2017-05-30T02:35:00.105Z,1001.4
2017-05-30T02:45:09.194Z,1001.3
2017-05-30T02:55:18.376Z,1001.5
2017-05-30T03:05:27.373Z,1001.5
2017-05-30T03:15:36.483Z,1001.7
2017-05-30T03:25:45.690Z,1001.8
2017-05-30T03:35:54.848Z,1001.7
2017-05-30T03:46:03.919Z,1002
2017-05-30T03:56:13.003Z,1002.1
2017-05-30T04:06:22.094Z,1002.1
2017-05-30T04:16:31.176Z,1002.1
2017-05-30T04:26:40.143Z,1002.3
2017-05-30T04:36:49.112Z,1002.2
2017-05-30T04:46:57.984Z,1002.2
2017-05-30T04:57:06.816Z,1002.3
2017-05-30T05:07:15.615Z,1002.3
2017-05-30T05:17:24.284Z,1002.3
2017-05-30T05:27:32.816Z,1002.6
2017-05-30T05:37:41.134Z,1002.5
2017-05-30T05:47:49.347Z,1002.7
2017-05-30T05:57:57.554Z,1002.7
2017-05-30T06:08:05.781Z,1002.9
2017-05-30T06:18:13.687Z,1003
2017-05-30T06:28:21.727Z,1003.1
2017-05-30T06:38:29.785Z,1003.1
2017-05-30T06:48:37.706Z,1003.2
2017-05-30T06:58:45.577Z,1003.3
2017-05-30T07:08:53.642Z,1003.4
2017-05-30T07:19:01.825Z,1003.4
2017-05-30T07:29:09.983Z,1003.5
2017-05-30T07:39:17.876Z,1003.4
2017-05-30T07:49:25.547Z,1003.4
2017-05-30T07:59:33.149Z,1003.3
2017-05-30T08:09:40.745Z,1003.4
2017-05-30T08:19:48.161Z,1003.6
2017-05-30T08:29:55.564Z,1003.5
2017-05-30T08:40:02.882Z,1003.4
2017-05-30T08:50:10.143Z,1003.5
2017-05-30T09:00:17.444Z,1003.5
2017-05-30T09:10:24.628Z,1003.5
2017-05-30T09:20:31.739Z,1003.6
2017-05-30T09:30:38.855Z,1003.9
2017-05-30T09:40:46.150Z,1003.9
2017-05-30T09:50:53.526Z,1003.8
2017-05-30T10:01:00.776Z,1003.8
2017-05-30T10:11:07.872Z,1003.7
2017-05-30T10:21:14.857Z,1003.8
2017-05-30T10:31:21.918Z,1003.8
2017-05-30T10:41:29.115Z,1003.8
2017-05-30T10:51:36.247Z,1003.8
2017-05-30T11:01:43.289Z,1003.6
2017-05-30T11:11:50.473Z,1004
2017-05-30T11:21:57.738Z,1003.5
2017-05-30T11:32:05.201Z,1003.5
2017-05-30T11:42:12.896Z,1003.6
2017-05-30T11:52:20.627Z,1003.7
2017-05-30T11:56:38.408Z,1003.6
2017-05-30T11:57:08.480Z,1003.6
2017-05-30T11:57:45.347Z,1003.7
2017-05-30T12:07:53.324Z,1001.9
2017-05-30T12:18:01.690Z,1003.5
2017-05-30T12:28:09.949Z,1003.5
2017-05-30T12:38:18.015Z,1005.2
2017-05-30T12:48:25.887Z,1003.5
2017-05-30T12:58:33.718Z,1003.6
2017-05-30T13:08:41.866Z,1003.7
2017-05-30T13:18:50.309Z,1004
2017-05-30T13:28:58.685Z,1003.8
2017-05-30T13:39:06.876Z,1003.7
2017-05-30T13:49:14.849Z,1003.6
2017-05-30T13:59:22.345Z,1003.4
2017-05-30T14:09:29.796Z,1003.6
2017-05-30T14:29:44.637Z,1003.5
2017-05-30T14:39:52.334Z,1003.5
2017-05-30T14:50:00.258Z,1003.4
2017-05-30T15:00:08.138Z,1003.4
2017-05-30T15:10:15.941Z,1003.5
2017-05-30T15:20:23.876Z,1003.7
2017-05-30T15:30:31.731Z,1003.5
2017-05-30T15:40:39.386Z,1003.6
2017-05-30T15:50:47.042Z,1003.7
2017-05-30T16:00:55.027Z,1003.7
2017-05-30T16:11:03.069Z,1003.8
2017-05-30T16:21:10.923Z,1003.7
2017-05-30T16:31:18.939Z,1003.9
2017-05-30T16:41:27.040Z,1004
2017-05-30T16:51:35.327Z,1004.1
2017-05-30T17:01:43.351Z,1004.5
2017-05-30T17:11:51.564Z,1004.4
2017-05-30T17:21:59.779Z,1004.5
2017-05-30T17:32:08.083Z,1004.8
2017-05-30T17:42:16.348Z,1004.7
2017-05-30T17:52:24.633Z,1004.6
2017-05-30T18:02:32.903Z,1005
2017-05-30T18:12:41.306Z,1005.2
2017-05-30T18:22:49.776Z,1005
2017-05-30T18:32:58.250Z,1005.2
2017-05-30T18:43:06.864Z,1005.9
2017-05-30T18:53:15.586Z,1005.8
2017-05-30T19:03:24.327Z,1005.9
2017-05-30T19:13:33.156Z,1006.1
2017-05-30T19:23:41.992Z,1006.2
2017-05-30T19:33:50.900Z,1006.3
2017-05-30T19:43:59.851Z,1006.7
2017-05-30T19:54:08.895Z,1006.7
2017-05-30T20:04:18.046Z,1006.9
2017-05-30T20:14:27.269Z,1007.1
2017-05-30T20:24:36.578Z,1007.3
2017-05-30T20:34:45.877Z,1007.4
2017-05-30T20:44:55.181Z,1007.4
2017-05-30T20:55:04.454Z,1007.5
2017-05-30T21:05:13.715Z,1007.4
2017-05-30T21:15:23.084Z,1007.5
2017-05-30T21:25:32.352Z,1007.6
2017-05-30T21:35:41.688Z,1007.6
2017-05-30T21:45:51.002Z,1007.9
2017-05-30T21:56:00.306Z,1007.8
2017-05-30T22:06:09.724Z,1007.8
2017-05-30T22:16:19.199Z,1008
2017-05-30T22:26:28.662Z,1008.1
2017-05-30T22:36:38.126Z,1008.2
2017-05-30T22:46:47.584Z,1008.1
2017-05-30T22:56:57.064Z,1008.2
2017-05-30T23:07:06.531Z,1008.2
2017-05-30T23:17:16.047Z,1008.4
2017-05-30T23:27:25.534Z,1008.2
2017-05-30T23:37:35.059Z,1008.3
2017-05-30T23:47:44.567Z,1008.3
2017-05-30T23:57:54.122Z,1008.2
